createdAt,value
2019-06-26T00:01:31.439Z,63.78
2019-06-26T00:04:03.489Z,62.45
2019-06-26T00:06:33.487Z,64.55
2019-06-26T00:09:16.287Z,64.70
2019-06-26T00:11:47.791Z,67.42
2019-06-26T00:14:18.905Z,68.65
2019-06-26T00:16:54.206Z,71.22
2019-06-26T00:19:25.348Z,70.28
2019-06-26T00:21:55.754Z,76.45
2019-06-26T00:24:25.253Z,72.27
2019-06-26T00:26:54.802Z,77.37
2019-06-26T00:29:26.497Z,78.10
2019-06-26T00:31:56.900Z,75.67
2019-06-26T00:34:26.353Z,78.67
2019-06-26T00:36:56.735Z,77.65
2019-06-26T00:39:26.211Z,76.37
2019-06-26T00:41:55.728Z,77.65
2019-06-26T00:44:25.221Z,77.53
2019-06-26T00:46:58.221Z,77.75
2019-06-26T00:49:31.248Z,78.45
2019-06-26T00:52:01.166Z,80.12
2019-06-26T00:54:32.414Z,78.78
2019-06-26T00:57:01.973Z,80.03
2019-06-26T00:59:31.799Z,82.50
2019-06-26T01:02:04.434Z,84.47
2019-06-26T01:07:12.855Z,81.02
2019-06-26T01:09:42.480Z,81.87
2019-06-26T01:12:12.701Z,79.03
2019-06-26T01:14:42.223Z,78.90
2019-06-26T01:17:12.723Z,80.77
2019-06-26T01:19:42.732Z,78.95
2019-06-26T01:22:13.502Z,81.65
2019-06-26T01:24:46.188Z,79.03
2019-06-26T01:27:15.653Z,81.15
2019-06-26T01:29:45.246Z,79.10
2019-06-26T01:32:14.724Z,79.67
2019-06-26T01:34:47.283Z,80.17
2019-06-26T01:37:16.732Z,80.17
2019-06-26T01:39:48.129Z,79.20
2019-06-26T01:42:19.304Z,81.97
2019-06-26T01:44:49.772Z,83.45
2019-06-26T01:47:20.517Z,79.70
2019-06-26T01:49:56.425Z,79.65
2019-06-26T01:52:28.641Z,80.67
2019-06-26T01:55:02.843Z,77.78
2019-06-26T01:57:33.838Z,84.45
2019-06-26T02:00:08.870Z,82.40
2019-06-26T02:02:38.707Z,83.12
2019-06-26T02:05:08.911Z,85.40
2019-06-26T02:07:40.112Z,85.00
2019-06-26T02:10:11.060Z,85.92
2019-06-26T02:12:41.565Z,85.50
2019-06-26T02:15:13.488Z,86.20
2019-06-26T02:17:44.876Z,90.25
2019-06-26T02:20:16.572Z,89.85
2019-06-26T02:22:49.659Z,92.25
2019-06-26T02:25:20.576Z,89.35
2019-06-26T02:27:52.946Z,92.85
2019-06-26T02:30:22.511Z,89.07
2019-06-26T02:32:53.937Z,92.97
2019-06-26T02:35:24.669Z,97.95
2019-06-26T02:37:54.156Z,95.32
2019-06-26T02:40:24.074Z,99.83
2019-06-26T02:42:53.599Z,96.80
2019-06-26T02:45:23.072Z,97.67
2019-06-26T02:47:52.525Z,98.10
2019-06-26T02:50:22.080Z,102.30
2019-06-26T02:52:51.544Z,100.25
2019-06-26T02:55:21.039Z,103.38
2019-06-26T02:57:51.592Z,99.15
2019-06-26T03:00:22.767Z,99.32
2019-06-26T03:02:57.147Z,102.80
2019-06-26T03:05:30.632Z,102.97
2019-06-26T03:08:00.136Z,100.10
2019-06-26T03:10:29.616Z,102.67
2019-06-26T03:12:59.199Z,104.38
2019-06-26T03:15:28.663Z,101.38
2019-06-26T03:17:58.120Z,103.25
2019-06-26T03:20:30.590Z,99.52
2019-06-26T03:23:00.044Z,94.40
2019-06-26T03:25:31.999Z,92.12
2019-06-26T03:28:03.132Z,92.05
2019-06-26T03:30:32.620Z,93.47
2019-06-26T03:33:02.133Z,91.40
2019-06-26T03:35:32.697Z,89.85
2019-06-26T03:38:03.159Z,88.40
2019-06-26T03:40:32.739Z,86.92
2019-06-26T03:43:04.223Z,85.97
2019-06-26T03:45:39.630Z,87.30
2019-06-26T03:48:09.127Z,91.30
2019-06-26T03:50:39.653Z,90.72
2019-06-26T03:53:12.591Z,90.97
2019-06-26T03:58:15.853Z,78.72
2019-06-26T04:00:48.709Z,78.10
2019-06-26T04:03:18.175Z,75.30
2019-06-26T04:05:49.342Z,78.67
2019-06-26T04:08:19.122Z,78.00
2019-06-26T04:10:48.624Z,78.10
2019-06-26T04:13:19.946Z,80.92
2019-06-26T04:15:51.208Z,79.40
2019-06-26T04:18:20.630Z,77.40
2019-06-26T04:20:53.200Z,75.52
2019-06-26T04:23:23.014Z,76.07
2019-06-26T04:26:03.848Z,74.85
2019-06-26T04:28:36.720Z,74.77
2019-06-26T04:31:09.389Z,79.10
2019-06-26T04:33:41.287Z,77.72
2019-06-26T04:36:11.321Z,79.23
2019-06-26T04:38:41.555Z,77.15
2019-06-26T04:41:14.463Z,76.28
2019-06-26T04:43:45.833Z,77.80
2019-06-26T04:46:16.820Z,75.95
2019-06-26T04:48:47.328Z,76.57
2019-06-26T04:51:25.139Z,77.72
2019-06-26T04:54:04.315Z,73.02
2019-06-26T04:56:33.679Z,75.05
2019-06-26T04:59:04.171Z,70.17
2019-06-26T05:01:35.848Z,68.65
2019-06-26T05:04:07.408Z,67.62
2019-06-26T05:06:38.292Z,68.62
2019-06-26T05:09:10.572Z,65.57
2019-06-26T05:11:40.432Z,65.40
2019-06-26T05:16:44.509Z,63.52
2019-06-26T05:19:17.250Z,66.00
2019-06-26T05:24:16.834Z,63.20
2019-06-26T05:26:47.218Z,61.02
2019-06-26T05:29:17.662Z,58.55
2019-06-26T05:31:47.168Z,58.95
2019-06-26T05:34:16.644Z,57.27
2019-06-26T05:36:46.004Z,55.10
2019-06-26T05:39:18.925Z,54.75
2019-06-26T05:41:48.456Z,53.13
2019-06-26T05:44:17.932Z,50.78
2019-06-26T05:46:47.374Z,50.92
2019-06-26T05:49:16.995Z,51.53
2019-06-26T05:51:47.847Z,49.25
2019-06-26T05:54:20.006Z,52.08
2019-06-26T05:56:50.441Z,50.05
2019-06-26T05:59:20.220Z,48.55
2019-06-26T06:01:49.657Z,48.02
2019-06-26T06:04:21.081Z,52.35
2019-06-26T06:06:51.642Z,53.05
2019-06-26T06:09:21.252Z,55.78
2019-06-26T06:12:05.485Z,54.03
2019-06-26T06:14:36.819Z,55.17
2019-06-26T06:17:13.561Z,54.65
2019-06-26T06:19:45.076Z,55.88
2019-06-26T06:22:14.960Z,57.73
2019-06-26T06:24:44.838Z,57.85
2019-06-26T06:27:14.258Z,55.48
2019-06-26T06:29:43.796Z,55.73
2019-06-26T06:32:16.964Z,57.43
2019-06-26T06:34:52.693Z,56.53
2019-06-26T06:37:24.620Z,58.73
2019-06-26T06:39:56.281Z,60.45
2019-06-26T06:42:28.708Z,60.12
2019-06-26T06:45:02.106Z,59.50
2019-06-26T06:47:31.668Z,62.40
2019-06-26T06:50:01.078Z,61.37
2019-06-26T06:52:30.592Z,60.60
2019-06-26T06:55:00.065Z,61.88
2019-06-26T06:57:29.514Z,64.32
2019-06-26T07:00:02.089Z,66.47
2019-06-26T07:02:33.932Z,66.37
2019-06-26T07:05:07.742Z,66.47
2019-06-26T07:07:43.837Z,62.10
2019-06-26T07:10:10.775Z,62.70
2019-06-26T07:12:41.830Z,60.85
2019-06-26T07:15:12.337Z,57.43
2019-06-26T07:17:41.775Z,58.58
2019-06-26T07:20:13.309Z,59.25
2019-06-26T07:25:17.351Z,61.25
2019-06-26T07:27:47.482Z,60.45
2019-06-26T07:30:18.300Z,62.40
2019-06-26T07:32:48.329Z,60.03
2019-06-26T07:35:20.325Z,62.98
2019-06-26T07:37:50.372Z,65.12
2019-06-26T07:40:25.609Z,60.23
2019-06-26T07:42:56.278Z,61.37
2019-06-26T07:45:27.624Z,59.90
2019-06-26T07:47:57.122Z,61.23
2019-06-26T07:50:26.580Z,61.92
2019-06-26T07:53:01.000Z,59.13
2019-06-26T07:55:32.785Z,57.95
2019-06-26T07:58:02.597Z,57.98
2019-06-26T08:00:32.086Z,55.43
2019-06-26T08:03:04.509Z,57.78
2019-06-26T08:05:35.700Z,58.90
2019-06-26T08:08:05.167Z,63.13
2019-06-26T08:10:39.432Z,57.23
2019-06-26T08:13:08.879Z,56.73
2019-06-26T08:15:41.021Z,56.05
2019-06-26T08:18:22.715Z,55.63
2019-06-26T08:21:11.624Z,53.25
2019-06-26T08:23:29.294Z,51.00
2019-06-26T08:25:59.910Z,51.18
2019-06-26T08:28:32.444Z,48.48
2019-06-26T08:31:27.958Z,49.27
2019-06-26T08:34:01.321Z,47.27
2019-06-26T08:36:30.993Z,48.60
2019-06-26T08:39:03.814Z,50.73
2019-06-26T08:41:36.110Z,48.70
2019-06-26T08:44:07.867Z,48.45
2019-06-26T08:46:37.371Z,47.23
2019-06-26T08:49:21.059Z,45.50
2019-06-26T08:51:43.040Z,48.80
2019-06-26T08:56:48.809Z,48.95
2019-06-26T08:59:22.341Z,46.37
2019-06-26T09:01:55.704Z,45.55
2019-06-26T09:04:26.930Z,44.40
2019-06-26T09:06:59.017Z,45.70
2019-06-26T09:09:34.705Z,45.45
2019-06-26T09:12:05.330Z,45.15
2019-06-26T09:14:34.781Z,44.83
2019-06-26T09:17:05.595Z,44.63
2019-06-26T09:19:35.073Z,46.42
2019-06-26T09:22:07.666Z,47.90
2019-06-26T09:24:37.158Z,46.70
2019-06-26T09:27:07.608Z,45.48
2019-06-26T09:29:42.643Z,47.15
2019-06-26T09:32:12.980Z,45.80
2019-06-26T09:34:45.703Z,50.23
2019-06-26T09:37:21.307Z,46.63
2019-06-26T09:39:51.684Z,45.90
2019-06-26T09:45:27.977Z,45.50
2019-06-26T09:56:46.556Z,43.87
2019-06-26T09:59:27.108Z,41.95
2019-06-26T10:02:09.696Z,43.83
2019-06-26T10:04:52.457Z,45.50
2019-06-26T10:07:44.632Z,45.88
2019-06-26T10:10:21.497Z,47.23
2019-06-26T10:12:54.189Z,44.85
2019-06-26T10:15:27.802Z,43.50
2019-06-26T10:29:46.554Z,44.55
2019-06-26T10:32:33.558Z,40.95
2019-06-26T10:35:28.944Z,39.70
2019-06-26T10:38:00.811Z,41.60
2019-06-26T10:40:30.386Z,39.55
2019-06-26T10:43:08.986Z,42.80
2019-06-26T10:49:33.923Z,42.05
2019-06-26T10:58:14.440Z,43.68
2019-06-26T11:03:53.962Z,43.28
2019-06-26T11:12:24.236Z,45.43
2019-06-26T11:15:12.238Z,49.98
2019-06-26T11:17:50.040Z,49.18
2019-06-26T11:20:24.527Z,48.45
2019-06-26T11:22:55.437Z,47.67
2019-06-26T11:25:29.862Z,42.20
2019-06-26T11:28:00.187Z,46.28
2019-06-26T11:30:29.649Z,43.48
2019-06-26T11:33:04.746Z,42.33
2019-06-26T11:38:09.317Z,43.63
2019-06-26T11:40:41.665Z,46.77
2019-06-26T11:43:15.233Z,46.88
2019-06-26T11:45:46.634Z,46.33
2019-06-26T11:48:22.985Z,44.73
2019-06-26T11:50:54.705Z,43.55
2019-06-26T11:53:25.238Z,42.70
2019-06-26T11:55:55.705Z,44.35
2019-06-26T11:58:26.597Z,44.08
2019-06-26T12:01:01.887Z,43.38
2019-06-26T12:03:35.658Z,42.50
2019-06-26T12:06:17.755Z,42.10
2019-06-26T12:08:39.258Z,43.25
2019-06-26T12:11:08.703Z,44.70
2019-06-26T12:13:41.229Z,42.88
2019-06-26T12:16:13.289Z,43.20
2019-06-26T12:18:43.653Z,44.90
2019-06-26T12:21:18.526Z,42.73
2019-06-26T12:23:48.037Z,46.05
2019-06-26T12:26:29.764Z,46.70
2019-06-26T12:29:06.781Z,45.95
2019-06-26T12:31:45.667Z,46.35
2019-06-26T12:34:24.275Z,47.20
2019-06-26T12:36:59.808Z,43.55
2019-06-26T12:39:37.932Z,47.75
2019-06-26T12:42:16.746Z,47.33
2019-06-26T12:44:51.273Z,44.93
2019-06-26T12:47:20.808Z,43.45
2019-06-26T12:49:51.277Z,41.18
2019-06-26T12:52:25.464Z,41.08
2019-06-26T12:54:56.176Z,40.98
2019-06-26T12:57:31.988Z,40.50
2019-06-26T13:00:07.370Z,44.65
2019-06-26T13:02:38.823Z,42.53
2019-06-26T13:05:10.276Z,43.13
2019-06-26T13:07:39.919Z,42.93
2019-06-26T13:10:10.140Z,42.70
2019-06-26T13:12:45.806Z,43.80
2019-06-26T13:15:14.479Z,43.85
2019-06-26T13:17:50.157Z,42.58
2019-06-26T13:20:20.988Z,39.80
2019-06-26T13:22:55.206Z,45.48
2019-06-26T13:25:27.289Z,43.98
2019-06-26T13:27:57.485Z,38.33
2019-06-26T13:30:30.120Z,43.87
2019-06-26T13:32:59.547Z,44.42
2019-06-26T13:38:20.246Z,41.48
2019-06-26T13:40:52.462Z,45.03
2019-06-26T13:43:25.648Z,43.33
2019-06-26T13:45:58.702Z,45.98
2019-06-26T13:48:31.980Z,43.65
2019-06-26T13:51:09.897Z,42.15
2019-06-26T13:53:36.768Z,42.05
2019-06-26T13:56:09.485Z,40.40
2019-06-26T13:58:39.005Z,38.17
2019-06-26T14:01:08.472Z,35.83
2019-06-26T14:03:38.824Z,34.35
2019-06-26T14:06:15.130Z,35.17
2019-06-26T14:08:46.990Z,32.58
2019-06-26T14:11:19.175Z,30.30
2019-06-26T14:13:48.310Z,33.38
2019-06-26T14:16:21.985Z,35.30
2019-06-26T14:18:51.417Z,31.20
2019-06-26T14:21:25.951Z,30.35
2019-06-26T14:23:56.171Z,28.75
2019-06-26T14:26:32.905Z,28.07
2019-06-26T14:29:20.424Z,28.17
2019-06-26T14:31:38.582Z,24.67
2019-06-26T14:34:16.805Z,24.72
2019-06-26T14:36:46.798Z,24.77
2019-06-26T14:39:20.796Z,25.00
2019-06-26T14:41:52.305Z,28.57
2019-06-26T14:44:23.533Z,27.22
2019-06-26T14:46:58.181Z,28.27
2019-06-26T14:49:28.368Z,28.52
2019-06-26T14:51:59.500Z,28.42
2019-06-26T14:54:28.923Z,27.52
2019-06-26T14:56:59.546Z,29.67
2019-06-26T14:59:29.930Z,27.00
2019-06-26T15:02:03.439Z,26.23
2019-06-26T15:04:32.576Z,26.10
2019-06-26T15:07:03.103Z,25.55
2019-06-26T15:09:33.636Z,24.85
2019-06-26T15:12:03.121Z,25.72
2019-06-26T15:14:37.957Z,26.20
2019-06-26T15:17:08.504Z,21.73
2019-06-26T15:19:37.991Z,23.77
2019-06-26T15:22:10.874Z,21.20
2019-06-26T15:24:45.478Z,22.82
2019-06-26T15:27:17.134Z,21.60
2019-06-26T15:46:58.640Z,19.80
2019-06-26T15:52:50.528Z,21.02
2019-06-26T15:58:08.883Z,23.83
2019-06-26T16:00:42.144Z,25.10
2019-06-26T16:03:15.215Z,22.58
2019-06-26T16:05:44.758Z,21.93
2019-06-26T16:08:14.219Z,21.42
2019-06-26T16:10:47.781Z,19.98
2019-06-26T16:13:17.798Z,20.45
2019-06-26T16:15:50.980Z,19.62
2019-06-26T16:18:24.985Z,18.82
2019-06-26T16:20:56.861Z,16.80
2019-06-26T16:23:28.721Z,16.90
2019-06-26T16:25:58.144Z,18.57
2019-06-26T16:28:29.160Z,19.92
2019-06-26T16:30:59.528Z,22.42
2019-06-26T16:33:29.219Z,21.45
2019-06-26T16:35:58.672Z,25.95
2019-06-26T16:38:30.413Z,24.63
2019-06-26T16:40:59.815Z,24.37
2019-06-26T16:43:31.312Z,25.12
2019-06-26T16:46:04.664Z,24.32
2019-06-26T16:48:35.792Z,24.72
2019-06-26T16:51:05.920Z,23.90
2019-06-26T16:53:37.110Z,23.10
2019-06-26T16:56:12.098Z,25.07
2019-06-26T16:58:43.610Z,25.05
2019-06-26T17:01:13.114Z,25.10
2019-06-26T17:03:42.821Z,25.75
2019-06-26T17:06:13.609Z,28.32
2019-06-26T17:08:45.055Z,30.57
2019-06-26T17:11:14.148Z,31.17
2019-06-26T17:13:44.812Z,31.93
2019-06-26T17:16:16.616Z,32.13
2019-06-26T17:18:52.339Z,31.85
2019-06-26T17:21:25.818Z,32.55
2019-06-26T17:23:58.431Z,31.68
2019-06-26T17:26:28.436Z,33.58
2019-06-26T17:29:03.068Z,30.15
2019-06-26T17:31:33.634Z,30.65
2019-06-26T17:34:09.737Z,29.63
2019-06-26T17:36:43.220Z,28.27
2019-06-26T17:39:12.680Z,26.68
2019-06-26T17:41:44.728Z,23.73
2019-06-26T17:44:16.437Z,23.32
2019-06-26T17:46:49.879Z,24.43
2019-06-26T17:49:24.497Z,22.40
2019-06-26T17:51:57.066Z,17.90
2019-06-26T17:54:26.540Z,16.70
2019-06-26T17:56:57.002Z,15.00
2019-06-26T17:59:29.010Z,12.07
2019-06-26T18:01:59.980Z,10.72
2019-06-26T18:04:34.854Z,9.80
2019-06-26T18:07:05.676Z,9.83
2019-06-26T18:09:35.869Z,10.40
2019-06-26T18:12:05.435Z,9.45
2019-06-26T18:14:37.695Z,9.43
2019-06-26T18:17:21.585Z,9.83
2019-06-26T18:19:45.802Z,8.95
2019-06-26T18:22:15.309Z,8.65
2019-06-26T18:24:46.488Z,8.08
2019-06-26T18:27:15.928Z,7.90
2019-06-26T18:29:45.372Z,7.58
2019-06-26T18:32:14.925Z,6.85
2019-06-26T18:34:46.886Z,6.22
2019-06-26T18:37:17.089Z,5.40
2019-06-26T18:39:49.976Z,5.45
2019-06-26T18:42:19.601Z,4.70
2019-06-26T18:44:51.646Z,5.83
2019-06-26T18:47:21.084Z,4.30
2019-06-26T18:49:50.529Z,4.37
2019-06-26T18:52:21.388Z,4.30
2019-06-26T18:54:52.221Z,4.83
2019-06-26T18:57:21.826Z,4.35
2019-06-26T18:59:51.280Z,4.97
2019-06-26T19:02:21.928Z,5.25
2019-06-26T19:04:57.965Z,4.33
2019-06-26T19:07:28.895Z,4.80
2019-06-26T19:10:01.174Z,4.47
2019-06-26T19:12:35.439Z,5.10
2019-06-26T19:15:06.677Z,4.20
2019-06-26T19:17:36.410Z,4.60
2019-06-26T19:20:07.022Z,4.20
2019-06-26T19:22:38.041Z,4.20
2019-06-26T19:25:09.184Z,4.72
2019-06-26T19:27:40.499Z,4.50
2019-06-26T19:30:14.607Z,4.97
2019-06-26T19:32:49.624Z,4.87
2019-06-26T19:38:18.720Z,4.28
2019-06-26T19:44:34.222Z,4.72
2019-06-26T19:47:08.118Z,4.67
2019-06-26T19:49:37.601Z,4.47
2019-06-26T19:52:07.123Z,4.10
2019-06-26T19:54:38.179Z,3.70
2019-06-26T19:57:07.618Z,3.85
2019-06-26T19:59:38.605Z,3.98
2019-06-26T20:02:14.174Z,4.05
2019-06-26T20:04:48.199Z,4.03
2019-06-26T20:07:22.715Z,3.60
2019-06-26T20:09:51.275Z,3.80
2019-06-26T20:12:21.189Z,3.67
2019-06-26T20:14:55.518Z,4.37
2019-06-26T20:17:27.541Z,3.95
2019-06-26T20:19:57.872Z,3.60
2019-06-26T20:22:30.572Z,3.25
2019-06-26T20:25:00.963Z,164.25
2019-06-26T20:27:30.462Z,5.65
2019-06-26T20:30:01.108Z,4.08
2019-06-26T20:32:30.563Z,3.77
2019-06-26T20:35:02.390Z,3.27
2019-06-26T20:37:33.841Z,3.03
2019-06-26T20:40:06.752Z,3.17
2019-06-26T20:42:36.316Z,3.20
2019-06-26T20:45:10.661Z,2.90
2019-06-26T20:47:41.421Z,3.08
2019-06-26T20:50:10.997Z,2.90
2019-06-26T20:52:41.434Z,2.67
2019-06-26T20:55:11.544Z,3.00
2019-06-26T20:57:43.713Z,35.28
2019-06-26T21:00:14.598Z,3.37
2019-06-26T21:02:47.194Z,3.05
2019-06-26T21:07:50.970Z,3.00
2019-06-26T21:10:21.366Z,3.00
2019-06-26T21:12:52.245Z,3.00
2019-06-26T21:15:21.696Z,2.95
2019-06-26T21:17:52.680Z,2.70
2019-06-26T21:20:22.154Z,6.03
2019-06-26T21:22:51.684Z,3.60
2019-06-26T21:25:21.120Z,3.08
2019-06-26T21:27:52.163Z,3.15
2019-06-26T21:30:21.581Z,3.00
2019-06-26T21:32:54.144Z,2.65
2019-06-26T21:37:52.148Z,2.55
2019-06-26T21:40:21.761Z,3.02
2019-06-26T21:42:52.123Z,2.90
2019-06-26T21:45:21.746Z,2.90
2019-06-26T21:47:51.349Z,2.77
2019-06-26T21:50:20.966Z,3.20
2019-06-26T21:52:51.542Z,3.50
2019-06-26T21:55:33.896Z,3.33
2019-06-26T21:58:11.660Z,3.42
2019-06-26T22:00:59.848Z,3.10
2019-06-26T22:03:48.363Z,18.75
2019-06-26T22:06:19.513Z,3.67
2019-06-26T22:08:59.707Z,3.75
2019-06-26T22:11:30.825Z,3.85
2019-06-26T22:14:08.813Z,3.62
2019-06-26T22:16:44.321Z,3.40
2019-06-26T22:19:24.757Z,4.12
2019-06-26T22:21:57.809Z,3.33
2019-06-26T22:24:31.579Z,3.77
2019-06-26T22:27:07.552Z,4.08
2019-06-26T22:29:42.442Z,4.40
2019-06-26T22:32:11.761Z,4.55
2019-06-26T22:34:41.269Z,3.90
2019-06-26T22:37:14.049Z,15.43
2019-06-26T22:39:44.953Z,5.08
2019-06-26T22:45:07.986Z,4.40
2019-06-26T22:47:37.596Z,4.37
2019-06-26T22:50:08.936Z,4.20
2019-06-26T22:52:47.052Z,4.80
2019-06-26T22:55:36.988Z,37.30
2019-06-26T22:58:13.543Z,4.40
2019-06-26T23:04:07.723Z,4.65
2019-06-26T23:06:52.287Z,4.90
2019-06-26T23:09:24.420Z,4.40
2019-06-26T23:11:56.207Z,5.08
2019-06-26T23:14:28.745Z,4.60
2019-06-26T23:16:59.274Z,4.42
2019-06-26T23:19:29.637Z,4.75
2019-06-26T23:21:59.077Z,4.50
2019-06-26T23:24:28.842Z,3.95
2019-06-26T23:26:58.289Z,4.50
2019-06-26T23:29:28.322Z,4.33
2019-06-26T23:31:58.789Z,5.10
2019-06-26T23:34:28.230Z,4.75
2019-06-26T23:36:58.760Z,4.50
2019-06-26T23:39:28.252Z,4.92
2019-06-26T23:41:57.636Z,4.80
2019-06-26T23:44:27.096Z,5.00
2019-06-26T23:46:57.488Z,4.70
2019-06-26T23:49:26.940Z,5.50
2019-06-26T23:51:57.368Z,5.67
2019-06-26T23:54:26.820Z,5.05
2019-06-26T23:56:56.248Z,4.92
2019-06-26T23:59:26.750Z,4.62
